Terminal Aerodrome Forecast
Issued by NWS

Home | Current Version | Previous Version | Text Only | Print | Product List | Glossary On
Versions: 1 2 3 4 5 6 7 8 9 10 11 12 13 14
000
FTUS44 KLZK 111805 AAA
TAFHRO
TAF AMD
KHRO 111805Z 1118/1218 27015G30KT P6SM SCT250
     FM112100 28016G31KT P6SM SCT150 BKN250
     FM120100 31010G16KT P6SM SCT100 BKN250
     FM121300 31010KT P6SM SKC=

USA.gov is the U.S. government's official web portal to all federal, state and local government web resources and services.